createdAt,value
2023-05-14T00:00:27.116Z,6.57
2023-05-14T00:03:20.527Z,6.55
2023-05-14T00:05:53.850Z,6.53
2023-05-14T00:08:27.075Z,6.49
2023-05-14T00:11:00.543Z,6.45
2023-05-14T00:13:34.192Z,6.41
2023-05-14T00:16:08.098Z,6.37
2023-05-14T00:18:41.351Z,6.32
2023-05-14T00:21:14.614Z,6.31
2023-05-14T00:23:48.053Z,6.29
2023-05-14T00:26:21.701Z,6.29
2023-05-14T00:28:55.127Z,6.31
2023-05-14T00:31:28.314Z,6.32
2023-05-14T00:34:01.749Z,6.34
2023-05-14T00:36:35.389Z,6.35
2023-05-14T00:39:09.131Z,6.36
2023-05-14T00:41:42.236Z,6.38
2023-05-14T00:44:15.354Z,6.39
2023-05-14T00:46:49.245Z,6.41
2023-05-14T00:49:22.905Z,6.43
2023-05-14T00:51:59.255Z,6.45
2023-05-14T00:54:33.376Z,6.36
2023-05-14T00:57:08.143Z,6.47
2023-05-14T00:59:42.986Z,6.48
2023-05-14T01:02:16.291Z,6.49
2023-05-14T01:04:49.922Z,6.50
2023-05-14T01:07:32.097Z,6.53
2023-05-14T01:10:10.349Z,6.55
2023-05-14T01:12:49.355Z,6.56
2023-05-14T01:15:27.424Z,6.58
2023-05-14T01:18:08.948Z,6.59
2023-05-14T01:20:42.412Z,6.61
2023-05-14T01:23:15.861Z,6.62
2023-05-14T01:25:50.145Z,6.63
2023-05-14T01:28:30.866Z,6.65
2023-05-14T01:31:10.006Z,6.65
2023-05-14T01:33:46.007Z,6.58
2023-05-14T01:36:19.566Z,6.65
2023-05-14T01:38:56.015Z,6.64
2023-05-14T01:41:31.462Z,6.63
2023-05-14T01:44:05.078Z,6.62
2023-05-14T01:46:38.801Z,6.60
2023-05-14T01:49:12.211Z,6.59
2023-05-14T01:51:45.908Z,6.57
2023-05-14T01:54:19.250Z,6.54
2023-05-14T01:56:53.308Z,6.52
2023-05-14T01:59:26.773Z,6.42
2023-05-14T02:02:00.329Z,6.46
2023-05-14T02:04:33.728Z,6.43
2023-05-14T02:07:07.242Z,6.40
2023-05-14T02:09:40.387Z,6.36
2023-05-14T02:12:14.382Z,6.33
2023-05-14T02:14:47.410Z,6.31
2023-05-14T02:17:21.564Z,6.29
2023-05-14T02:19:54.943Z,6.27
2023-05-14T02:22:28.610Z,6.25
2023-05-14T02:25:02.127Z,6.22
2023-05-14T02:27:35.805Z,6.19
2023-05-14T02:30:11.381Z,6.16
2023-05-14T02:32:46.364Z,6.12
2023-05-14T02:35:20.325Z,6.12
2023-05-14T02:37:54.612Z,6.10
2023-05-14T02:40:28.352Z,6.06
2023-05-14T02:43:01.727Z,6.03
2023-05-14T02:45:35.347Z,6.00
2023-05-14T02:48:09.643Z,5.99
2023-05-14T02:50:43.362Z,5.97
2023-05-14T02:53:16.742Z,5.95
2023-05-14T02:55:52.548Z,5.93
2023-05-14T02:58:28.849Z,5.90
2023-05-14T03:01:02.424Z,5.87
2023-05-14T03:03:36.826Z,5.85
2023-05-14T03:06:11.096Z,5.82
2023-05-14T03:08:44.734Z,5.79
2023-05-14T03:11:18.027Z,5.77
2023-05-14T03:13:51.422Z,5.75
2023-05-14T03:16:24.970Z,5.74
2023-05-14T03:18:58.770Z,5.72
2023-05-14T03:21:32.161Z,5.72
2023-05-14T03:24:05.568Z,5.74
2023-05-14T03:26:38.915Z,5.74
2023-05-14T03:29:12.138Z,5.74
2023-05-14T03:31:46.772Z,5.75
2023-05-14T03:34:20.325Z,5.70
2023-05-14T03:36:53.811Z,5.77
2023-05-14T03:39:27.012Z,5.79
2023-05-14T03:42:01.144Z,5.81
2023-05-14T03:44:34.504Z,5.83
2023-05-14T03:47:08.295Z,5.87
2023-05-14T03:49:41.891Z,5.92
2023-05-14T03:52:15.718Z,5.98
2023-05-14T03:54:50.273Z,6.04
2023-05-14T03:57:23.727Z,6.11
2023-05-14T03:59:57.216Z,6.18
2023-05-14T04:02:30.647Z,6.26
2023-05-14T04:05:04.582Z,6.33
2023-05-14T04:07:37.866Z,6.47
2023-05-14T04:10:12.924Z,6.61
2023-05-14T04:12:46.182Z,6.74
2023-05-14T04:15:19.655Z,6.87
2023-05-14T04:17:52.748Z,7.01
2023-05-14T04:20:26.197Z,7.16
2023-05-14T04:22:59.673Z,7.30
2023-05-14T04:25:33.017Z,7.42
2023-05-14T04:28:06.533Z,7.54
2023-05-14T04:30:40.854Z,7.66
2023-05-14T04:33:14.289Z,7.80
2023-05-14T04:35:48.658Z,7.93
2023-05-14T04:38:22.093Z,8.07
2023-05-14T04:40:55.376Z,8.23
2023-05-14T04:43:28.589Z,8.31
2023-05-14T04:46:02.302Z,8.39
2023-05-14T04:48:35.923Z,8.73
2023-05-14T04:51:09.328Z,8.91
2023-05-14T04:53:42.942Z,9.13
2023-05-14T04:56:16.162Z,9.32
2023-05-14T04:58:49.395Z,9.46
2023-05-14T05:01:23.673Z,9.68
2023-05-14T05:03:58.102Z,9.82
2023-05-14T05:06:31.892Z,9.99
2023-05-14T05:09:05.604Z,10.16
2023-05-14T05:11:39.415Z,10.30
2023-05-14T05:14:12.806Z,10.47
2023-05-14T05:16:46.495Z,10.65
2023-05-14T05:19:26.461Z,10.74
2023-05-14T05:22:06.657Z,10.98
2023-05-14T05:24:40.616Z,11.12
2023-05-14T05:27:14.606Z,11.28
2023-05-14T05:29:48.151Z,11.46
2023-05-14T05:32:22.042Z,11.47
2023-05-14T05:34:55.525Z,11.84
2023-05-14T05:37:28.812Z,12.06
2023-05-14T05:40:02.307Z,12.26
2023-05-14T05:42:35.946Z,12.45
2023-05-14T05:45:11.177Z,12.65
2023-05-14T05:47:44.522Z,12.85
2023-05-14T05:50:19.812Z,13.10
2023-05-14T05:52:53.688Z,13.35
2023-05-14T05:55:27.097Z,13.59
2023-05-14T05:58:00.463Z,13.77
2023-05-14T06:00:34.246Z,13.94
2023-05-14T06:03:07.831Z,14.03
2023-05-14T06:05:41.946Z,14.25
2023-05-14T06:08:16.737Z,14.33
2023-05-14T06:10:50.247Z,14.42
2023-05-14T06:13:23.670Z,14.52
2023-05-14T06:15:57.124Z,14.59
2023-05-14T06:18:30.812Z,14.65
2023-05-14T06:21:04.075Z,14.66
2023-05-14T06:23:37.418Z,14.68
2023-05-14T06:26:11.625Z,14.69
2023-05-14T06:28:45.065Z,14.84
2023-05-14T06:31:19.563Z,14.96
2023-05-14T06:33:53.049Z,15.04
2023-05-14T06:36:26.566Z,15.20
2023-05-14T06:39:00.773Z,15.41
2023-05-14T06:41:48.376Z,15.58
2023-05-14T06:44:30.645Z,15.75
2023-05-14T06:47:04.158Z,15.89
2023-05-14T06:49:37.863Z,15.92
2023-05-14T06:52:11.601Z,16.06
2023-05-14T06:54:45.086Z,16.22
2023-05-14T06:57:18.378Z,16.44
2023-05-14T06:59:51.672Z,16.51
2023-05-14T07:02:24.885Z,16.56
2023-05-14T07:04:58.354Z,16.60
2023-05-14T07:07:32.378Z,16.68
2023-05-14T07:10:06.811Z,16.82
2023-05-14T07:12:40.523Z,16.97
2023-05-14T07:15:15.166Z,17.01
2023-05-14T07:17:48.840Z,17.01
2023-05-14T07:20:24.421Z,16.99
2023-05-14T07:22:58.103Z,16.97
2023-05-14T07:25:31.571Z,17.14
2023-05-14T07:28:05.056Z,17.27
2023-05-14T07:30:38.321Z,17.29
2023-05-14T07:33:11.663Z,17.57
2023-05-14T07:35:48.065Z,17.81
2023-05-14T07:38:20.923Z,18.04
2023-05-14T07:40:54.730Z,18.13
2023-05-14T07:43:28.572Z,18.22
2023-05-14T07:46:02.391Z,18.22
2023-05-14T07:48:36.264Z,18.23
2023-05-14T07:51:10.039Z,18.24
2023-05-14T07:53:43.373Z,18.30
2023-05-14T07:56:17.786Z,18.37
2023-05-14T07:58:51.970Z,18.52
2023-05-14T08:01:26.669Z,18.68
2023-05-14T08:04:00.445Z,18.82
2023-05-14T08:06:35.194Z,18.88
2023-05-14T08:09:09.087Z,19.03
2023-05-14T08:11:43.015Z,19.29
2023-05-14T08:14:16.484Z,19.46
2023-05-14T08:16:50.409Z,19.64
2023-05-14T08:19:24.250Z,19.87
2023-05-14T08:21:57.971Z,20.56
2023-05-14T08:24:31.745Z,22.37
2023-05-14T08:27:05.415Z,23.76
2023-05-14T08:29:39.071Z,24.10
2023-05-14T08:32:22.836Z,23.96
2023-05-14T08:34:58.100Z,23.61
2023-05-14T08:37:32.044Z,23.63
2023-05-14T08:40:06.038Z,23.56
2023-05-14T08:42:43.540Z,23.33
2023-05-14T08:45:20.777Z,23.19
2023-05-14T08:47:54.746Z,23.54
2023-05-14T08:50:30.589Z,24.02
2023-05-14T08:53:04.443Z,24.56
2023-05-14T08:55:39.275Z,24.94
2023-05-14T08:58:12.930Z,25.44
2023-05-14T09:00:46.559Z,25.93
2023-05-14T09:03:20.833Z,26.55
2023-05-14T09:05:55.334Z,27.96
2023-05-14T09:08:29.114Z,29.80
2023-05-14T09:11:02.617Z,31.64
2023-05-14T09:13:38.278Z,32.99
2023-05-14T09:16:12.037Z,33.50
2023-05-14T09:18:49.285Z,34.35
2023-05-14T09:21:25.203Z,35.81
2023-05-14T09:24:01.304Z,37.34
2023-05-14T09:26:35.785Z,37.68
2023-05-14T09:29:09.975Z,37.77
2023-05-14T09:31:43.330Z,36.98
2023-05-14T09:34:27.602Z,35.29
2023-05-14T09:37:02.774Z,34.05
2023-05-14T09:39:38.182Z,33.11
2023-05-14T09:42:11.892Z,32.10
2023-05-14T09:44:47.741Z,31.94
2023-05-14T09:47:21.753Z,31.65
2023-05-14T09:49:56.050Z,31.19
2023-05-14T09:52:29.324Z,30.93
2023-05-14T09:55:03.313Z,30.34
2023-05-14T09:57:36.860Z,29.63
2023-05-14T10:00:16.410Z,28.98
2023-05-14T10:02:53.534Z,28.62
2023-05-14T10:05:27.920Z,28.64
2023-05-14T10:08:05.256Z,28.41
2023-05-14T10:10:39.372Z,28.24
2023-05-14T10:13:15.538Z,28.35
2023-05-14T10:15:53.788Z,28.61
2023-05-14T10:18:32.175Z,28.72
2023-05-14T10:21:08.322Z,28.77
2023-05-14T10:23:43.409Z,28.61
2023-05-14T10:26:17.693Z,28.50
2023-05-14T10:28:51.380Z,27.88
2023-05-14T10:31:46.596Z,27.45
2023-05-14T10:34:41.382Z,26.87
2023-05-14T10:37:16.942Z,26.61
2023-05-14T10:39:52.266Z,26.63
2023-05-14T10:42:25.062Z,26.86
2023-05-14T10:45:01.917Z,27.03
2023-05-14T10:47:37.745Z,27.24
2023-05-14T10:50:10.616Z,27.52
2023-05-14T10:52:46.904Z,27.66
2023-05-14T10:55:22.725Z,27.70
2023-05-14T10:58:01.806Z,27.77
2023-05-14T11:00:37.149Z,27.98
2023-05-14T11:03:13.643Z,27.87
2023-05-14T11:05:47.975Z,27.43
2023-05-14T11:08:25.974Z,26.99
2023-05-14T11:11:02.869Z,26.20
2023-05-14T11:13:37.646Z,25.78
2023-05-14T11:16:22.869Z,25.94
2023-05-14T11:19:06.737Z,26.27
2023-05-14T11:21:40.575Z,26.26
2023-05-14T11:24:14.545Z,26.06
2023-05-14T11:26:48.554Z,25.51
2023-05-14T11:29:21.927Z,25.21
2023-05-14T11:31:56.135Z,25.18
2023-05-14T11:34:30.417Z,25.44
2023-05-14T11:37:06.592Z,25.47
2023-05-14T11:39:39.139Z,25.71
2023-05-14T11:42:17.679Z,26.01
2023-05-14T11:44:52.504Z,26.23
2023-05-14T11:47:26.335Z,26.27
2023-05-14T11:50:00.732Z,26.49
2023-05-14T11:52:40.012Z,26.73
2023-05-14T11:55:16.277Z,26.62
2023-05-14T11:57:49.710Z,26.14
2023-05-14T12:00:25.049Z,25.65
2023-05-14T12:02:58.846Z,25.35
2023-05-14T12:05:32.671Z,25.24
2023-05-14T12:08:21.271Z,25.27
2023-05-14T12:10:54.799Z,24.78
2023-05-14T12:13:31.005Z,24.36
2023-05-14T12:16:05.795Z,23.98
2023-05-14T12:18:39.498Z,23.52
2023-05-14T12:21:13.563Z,23.17
2023-05-14T12:23:47.180Z,22.93
2023-05-14T12:26:23.901Z,22.89
2023-05-14T12:29:01.260Z,22.97
2023-05-14T12:31:36.774Z,22.97
2023-05-14T12:34:10.089Z,23.12
2023-05-14T12:36:43.653Z,23.55
2023-05-14T12:39:16.912Z,23.74
2023-05-14T12:41:50.282Z,23.69
2023-05-14T12:44:24.038Z,23.74
2023-05-14T12:46:58.031Z,23.78
2023-05-14T12:49:31.412Z,23.84
2023-05-14T12:52:19.875Z,23.93
2023-05-14T12:54:58.332Z,24.28
2023-05-14T12:57:31.993Z,24.55
2023-05-14T13:00:07.187Z,24.69
2023-05-14T13:02:42.376Z,24.71
2023-05-14T13:05:17.695Z,24.81
2023-05-14T13:07:51.204Z,24.64
2023-05-14T13:10:24.973Z,23.90
2023-05-14T13:12:58.503Z,23.40
2023-05-14T13:15:34.453Z,22.98
2023-05-14T13:18:09.684Z,22.79
2023-05-14T13:20:43.915Z,22.32
2023-05-14T13:23:17.646Z,22.11
2023-05-14T13:25:51.456Z,21.90
2023-05-14T13:28:24.903Z,21.69
2023-05-14T13:31:12.616Z,21.74
2023-05-14T13:33:47.001Z,21.84
2023-05-14T13:36:20.440Z,21.79
2023-05-14T13:38:53.933Z,21.73
2023-05-14T13:41:28.683Z,21.63
2023-05-14T13:44:04.552Z,21.49
2023-05-14T13:46:39.526Z,21.28
2023-05-14T13:49:13.294Z,21.27
2023-05-14T13:51:46.713Z,21.22
2023-05-14T13:54:20.213Z,21.23
2023-05-14T13:56:53.772Z,21.29
2023-05-14T13:59:28.221Z,21.28
2023-05-14T14:02:01.584Z,21.35
2023-05-14T14:04:35.242Z,21.49
2023-05-14T14:07:09.362Z,21.61
2023-05-14T14:09:42.892Z,21.75
2023-05-14T14:12:16.348Z,21.96
2023-05-14T14:14:50.203Z,22.13
2023-05-14T14:17:23.633Z,22.21
2023-05-14T14:19:56.986Z,22.13
2023-05-14T14:22:30.255Z,22.00
2023-05-14T14:25:03.853Z,21.88
2023-05-14T14:27:40.139Z,21.88
2023-05-14T14:30:17.033Z,21.94
2023-05-14T14:32:51.192Z,21.88
2023-05-14T14:35:24.614Z,21.78
2023-05-14T14:37:58.433Z,21.63
2023-05-14T14:40:31.875Z,21.60
2023-05-14T14:43:05.376Z,21.56
2023-05-14T14:45:39.003Z,21.48
2023-05-14T14:48:31.659Z,21.33
2023-05-14T14:51:05.445Z,21.11
2023-05-14T14:53:40.700Z,21.02
2023-05-14T14:56:14.099Z,20.98
2023-05-14T14:58:47.524Z,20.89
2023-05-14T15:01:21.764Z,20.73
2023-05-14T15:03:55.307Z,20.65
2023-05-14T15:06:29.926Z,20.63
2023-05-14T15:09:03.406Z,20.62
2023-05-14T15:11:37.778Z,20.58
2023-05-14T15:14:11.171Z,20.62
2023-05-14T15:16:44.927Z,20.64
2023-05-14T15:19:18.735Z,20.66
2023-05-14T15:21:52.579Z,20.68
2023-05-14T15:24:26.495Z,20.71
2023-05-14T15:26:59.953Z,20.73
2023-05-14T15:29:33.378Z,20.76
2023-05-14T15:32:07.526Z,20.79
2023-05-14T15:34:40.754Z,20.80
2023-05-14T15:37:14.451Z,20.79
2023-05-14T15:39:47.915Z,20.82
2023-05-14T15:42:21.284Z,20.84
2023-05-14T15:44:54.692Z,20.83
2023-05-14T15:47:28.353Z,20.78
2023-05-14T15:50:02.246Z,20.69
2023-05-14T15:52:36.135Z,20.66
2023-05-14T15:55:11.888Z,20.69
2023-05-14T15:57:45.568Z,20.70
2023-05-14T16:00:20.569Z,20.64
2023-05-14T16:02:54.725Z,20.55
2023-05-14T16:05:28.481Z,20.47
2023-05-14T16:08:02.694Z,20.38
2023-05-14T16:10:36.310Z,20.27
2023-05-14T16:13:09.748Z,20.19
2023-05-14T16:15:43.367Z,20.13
2023-05-14T16:18:16.844Z,20.10
2023-05-14T16:20:50.189Z,20.10
2023-05-14T16:23:24.011Z,20.13
2023-05-14T16:26:02.308Z,20.14
2023-05-14T16:28:35.891Z,20.12
2023-05-14T16:31:09.291Z,20.10
2023-05-14T16:33:42.916Z,20.08
2023-05-14T16:36:16.872Z,20.04
2023-05-14T16:39:06.848Z,20.01
2023-05-14T16:41:41.321Z,19.96
2023-05-14T16:44:14.586Z,19.94
2023-05-14T16:46:48.405Z,19.90
2023-05-14T16:49:22.799Z,19.87
2023-05-14T16:51:56.461Z,19.81
2023-05-14T16:54:30.096Z,19.76
2023-05-14T16:57:03.524Z,19.72
2023-05-14T16:59:36.956Z,19.65
2023-05-14T17:02:10.232Z,19.57
2023-05-14T17:04:43.722Z,19.51
2023-05-14T17:07:17.273Z,19.46
2023-05-14T17:09:51.357Z,19.38
2023-05-14T17:12:28.368Z,19.31
2023-05-14T17:15:05.225Z,19.23
2023-05-14T17:17:39.222Z,19.12
2023-05-14T17:20:16.779Z,19.01
2023-05-14T17:22:51.306Z,18.93
2023-05-14T17:25:26.948Z,18.83
2023-05-14T17:28:00.808Z,18.71
2023-05-14T17:30:34.629Z,18.58
2023-05-14T17:33:08.772Z,18.46
2023-05-14T17:35:44.130Z,18.35
2023-05-14T17:38:18.545Z,18.26
2023-05-14T17:40:52.069Z,18.18
2023-05-14T17:43:26.600Z,18.10
2023-05-14T17:46:01.154Z,18.04
2023-05-14T17:48:34.699Z,17.99
2023-05-14T17:51:08.308Z,17.95
2023-05-14T17:53:41.675Z,17.90
2023-05-14T17:56:17.553Z,17.85
2023-05-14T17:58:52.387Z,17.81
2023-05-14T18:01:26.096Z,17.76
2023-05-14T18:03:59.719Z,17.71
2023-05-14T18:06:33.402Z,17.67
2023-05-14T18:09:07.367Z,17.54
2023-05-14T18:11:40.994Z,17.56
2023-05-14T18:14:14.738Z,17.51
2023-05-14T18:16:48.724Z,17.46
2023-05-14T18:19:22.309Z,17.40
2023-05-14T18:21:57.267Z,17.33
2023-05-14T18:24:32.494Z,17.27
2023-05-14T18:27:06.675Z,17.12
2023-05-14T18:29:40.500Z,17.12
2023-05-14T18:32:15.137Z,17.06
2023-05-14T18:34:49.310Z,16.99
2023-05-14T18:37:24.944Z,16.93
2023-05-14T18:40:07.541Z,16.88
2023-05-14T18:42:50.017Z,16.82
2023-05-14T18:45:25.529Z,16.76
2023-05-14T18:48:01.025Z,16.70
2023-05-14T18:50:39.295Z,16.59
2023-05-14T18:53:14.499Z,16.58
2023-05-14T18:55:48.096Z,16.52
2023-05-14T18:58:22.243Z,16.46
2023-05-14T19:00:58.044Z,16.41
2023-05-14T19:03:32.205Z,16.34
2023-05-14T19:06:05.981Z,16.27
2023-05-14T19:08:40.058Z,16.18
2023-05-14T19:11:13.697Z,16.12
2023-05-14T19:13:49.894Z,16.04
2023-05-14T19:16:24.458Z,15.83
2023-05-14T19:18:58.071Z,15.57
2023-05-14T19:21:38.050Z,14.99
2023-05-14T19:24:21.231Z,14.04
2023-05-14T19:26:58.898Z,13.50
2023-05-14T19:29:34.282Z,13.16
2023-05-14T19:32:10.724Z,12.95
2023-05-14T19:34:45.509Z,12.86
2023-05-14T19:37:20.243Z,12.73
2023-05-14T19:39:54.555Z,12.67
2023-05-14T19:42:29.242Z,12.64
2023-05-14T19:45:04.178Z,12.64
2023-05-14T19:47:37.849Z,12.65
2023-05-14T19:50:13.141Z,12.66
2023-05-14T19:52:46.650Z,12.67
2023-05-14T19:55:22.068Z,12.69
2023-05-14T19:58:06.411Z,12.71
2023-05-14T20:00:44.780Z,12.67
2023-05-14T20:03:23.886Z,12.62
2023-05-14T20:06:01.612Z,12.51
2023-05-14T20:08:38.466Z,12.41
2023-05-14T20:11:16.303Z,12.31
2023-05-14T20:13:50.450Z,12.23
2023-05-14T20:16:24.476Z,12.24
2023-05-14T20:18:58.256Z,12.28
2023-05-14T20:21:32.314Z,12.32
2023-05-14T20:24:06.891Z,12.36
2023-05-14T20:26:41.327Z,12.39
2023-05-14T20:29:16.228Z,12.40
2023-05-14T20:31:49.941Z,12.44
2023-05-14T20:34:23.393Z,12.46
2023-05-14T20:36:59.488Z,12.49
2023-05-14T20:39:33.696Z,12.52
2023-05-14T20:42:08.239Z,12.54
2023-05-14T20:44:42.047Z,12.53
2023-05-14T20:47:20.939Z,12.50
2023-05-14T20:49:55.099Z,12.45
2023-05-14T20:52:28.471Z,12.40
2023-05-14T20:55:02.504Z,12.38
2023-05-14T20:57:36.372Z,12.36
2023-05-14T21:00:12.792Z,12.31
2023-05-14T21:02:44.875Z,12.14
2023-05-14T21:05:18.628Z,12.11
2023-05-14T21:07:52.019Z,12.04
2023-05-14T21:10:26.136Z,12.03
2023-05-14T21:13:00.696Z,12.04
2023-05-14T21:15:34.528Z,12.03
2023-05-14T21:18:08.487Z,12.00
2023-05-14T21:20:42.032Z,11.99
2023-05-14T21:23:16.079Z,11.97
2023-05-14T21:25:50.155Z,11.98
2023-05-14T21:28:24.343Z,12.00
2023-05-14T21:30:57.814Z,12.02
2023-05-14T21:33:31.332Z,12.03
2023-05-14T21:36:04.799Z,12.05
2023-05-14T21:38:38.425Z,12.08
2023-05-14T21:41:11.869Z,12.10
2023-05-14T21:43:45.643Z,12.13
2023-05-14T21:46:19.293Z,12.11
2023-05-14T21:48:53.279Z,12.10
2023-05-14T21:51:27.138Z,12.12
2023-05-14T21:54:00.688Z,12.13
2023-05-14T21:56:36.494Z,12.16
2023-05-14T21:59:09.881Z,12.18
2023-05-14T22:02:00.749Z,12.17
2023-05-14T22:04:36.849Z,12.16
2023-05-14T22:07:10.134Z,12.17
2023-05-14T22:09:43.765Z,12.16
2023-05-14T22:12:17.056Z,12.17
2023-05-14T22:14:50.985Z,12.17
2023-05-14T22:17:24.345Z,12.16
2023-05-14T22:19:57.862Z,12.16
2023-05-14T22:22:31.090Z,12.16
2023-05-14T22:25:04.740Z,12.14
2023-05-14T22:27:38.288Z,12.14
2023-05-14T22:30:13.492Z,12.13
2023-05-14T22:33:00.076Z,12.13
2023-05-14T22:35:33.957Z,12.12
2023-05-14T22:38:07.491Z,12.11
2023-05-14T22:40:41.271Z,12.12
2023-05-14T22:43:14.627Z,12.11
2023-05-14T22:45:48.652Z,12.11
2023-05-14T22:48:22.089Z,12.10
2023-05-14T22:50:55.565Z,12.10
2023-05-14T22:53:28.851Z,12.10
2023-05-14T22:56:02.160Z,12.09
2023-05-14T22:58:35.734Z,12.10
2023-05-14T23:01:09.290Z,12.10
2023-05-14T23:03:42.696Z,12.10
2023-05-14T23:06:16.438Z,12.10
2023-05-14T23:08:50.092Z,12.11
2023-05-14T23:11:23.779Z,12.11
2023-05-14T23:13:57.266Z,12.11
2023-05-14T23:16:30.797Z,12.06
2023-05-14T23:19:04.648Z,12.11
2023-05-14T23:21:38.828Z,12.11
2023-05-14T23:24:13.211Z,12.11
2023-05-14T23:26:46.502Z,12.09
2023-05-14T23:29:20.371Z,12.09
2023-05-14T23:31:54.460Z,12.07
2023-05-14T23:34:28.287Z,12.05
2023-05-14T23:37:02.142Z,12.04
2023-05-14T23:39:35.711Z,12.01
2023-05-14T23:42:09.509Z,11.99
2023-05-14T23:44:42.831Z,11.98
2023-05-14T23:47:16.749Z,11.96
2023-05-14T23:49:50.085Z,11.95
2023-05-14T23:52:24.056Z,11.95
2023-05-14T23:54:57.488Z,11.94
2023-05-14T23:57:30.856Z,11.94
